createdAt,value
2019-01-06T00:00:31.925Z,4.62
2019-01-06T00:01:31.828Z,4.69
2019-01-06T00:02:31.835Z,4.62
2019-01-06T00:03:31.928Z,4.69
2019-01-06T00:04:31.730Z,4.69
2019-01-06T00:05:31.985Z,4.69
2019-01-06T00:06:31.752Z,4.69
2019-01-06T00:07:31.838Z,4.62
2019-01-06T00:08:31.735Z,4.62
2019-01-06T00:09:32.266Z,4.69
2019-01-06T00:10:32.158Z,4.69
2019-01-06T00:11:31.860Z,4.69
2019-01-06T00:12:32.193Z,4.62
2019-01-06T00:13:31.797Z,4.69
2019-01-06T00:14:31.754Z,4.62
2019-01-06T00:15:31.732Z,4.62
2019-01-06T00:16:31.909Z,4.69
2019-01-06T00:17:31.899Z,4.62
2019-01-06T00:18:31.970Z,4.69
2019-01-06T00:19:31.739Z,4.62
2019-01-06T00:20:31.809Z,4.69
2019-01-06T00:21:31.867Z,4.62
2019-01-06T00:22:31.685Z,4.69
2019-01-06T00:23:31.785Z,4.62
2019-01-06T00:24:31.873Z,4.69
2019-01-06T00:25:31.762Z,4.62
2019-01-06T00:26:32.129Z,4.69
2019-01-06T00:27:31.710Z,4.62
2019-01-06T00:28:31.698Z,4.69
2019-01-06T00:29:32.529Z,4.62
2019-01-06T00:30:32.121Z,4.62
2019-01-06T00:31:31.791Z,4.69
2019-01-06T00:32:31.797Z,4.62
2019-01-06T00:33:32.248Z,4.62
2019-01-06T00:34:32.014Z,4.62
2019-01-06T00:35:31.954Z,4.62
2019-01-06T00:36:32.188Z,4.62
2019-01-06T00:37:31.805Z,4.69
2019-01-06T00:38:32.438Z,4.62
2019-01-06T00:39:32.323Z,4.69
2019-01-06T00:40:31.930Z,4.62
2019-01-06T00:41:31.962Z,4.69
2019-01-06T00:42:31.773Z,4.62
2019-01-06T00:43:31.997Z,4.69
2019-01-06T00:44:31.718Z,4.62
2019-01-06T00:45:32.002Z,4.62
2019-01-06T00:46:31.697Z,4.62
2019-01-06T00:47:32.261Z,4.62
2019-01-06T00:48:32.080Z,4.62
2019-01-06T00:49:31.883Z,4.62
2019-01-06T00:50:31.643Z,4.62
2019-01-06T00:51:31.692Z,4.62
2019-01-06T00:52:31.854Z,4.62
2019-01-06T00:53:31.688Z,4.62
2019-01-06T00:54:31.854Z,4.62
2019-01-06T00:55:31.788Z,4.62
2019-01-06T00:56:31.657Z,4.62
2019-01-06T00:57:32.046Z,4.62
2019-01-06T00:58:31.626Z,4.69
2019-01-06T00:59:31.701Z,4.62
2019-01-06T01:00:31.685Z,4.62
2019-01-06T01:01:31.657Z,4.62
2019-01-06T01:02:32.480Z,4.62
2019-01-06T01:03:31.694Z,4.69
2019-01-06T01:04:31.716Z,4.62
2019-01-06T01:05:31.708Z,4.62
2019-01-06T01:06:31.630Z,4.62
2019-01-06T01:07:32.131Z,4.62
2019-01-06T01:08:31.885Z,4.69
2019-01-06T01:09:31.803Z,4.62
2019-01-06T01:10:31.693Z,4.62
2019-01-06T01:11:31.654Z,4.62
2019-01-06T01:12:31.598Z,4.62
2019-01-06T01:13:31.721Z,4.69
2019-01-06T01:14:32.012Z,4.62
2019-01-06T01:15:31.611Z,4.62
2019-01-06T01:16:31.605Z,4.62
2019-01-06T01:17:31.749Z,4.62
2019-01-06T01:18:31.658Z,4.56
2019-01-06T01:19:31.609Z,4.62
2019-01-06T01:20:31.609Z,4.62
2019-01-06T01:21:31.628Z,4.62
2019-01-06T01:22:31.697Z,4.62
2019-01-06T01:23:31.705Z,4.69
2019-01-06T01:24:31.881Z,4.62
2019-01-06T01:25:31.735Z,4.62
2019-01-06T01:26:31.682Z,4.62
2019-01-06T01:27:31.730Z,4.69
2019-01-06T01:28:31.824Z,4.62
2019-01-06T01:29:31.715Z,4.62
2019-01-06T01:30:31.656Z,4.62
2019-01-06T01:31:31.782Z,4.62
2019-01-06T01:32:31.736Z,4.62
2019-01-06T01:33:31.601Z,4.62
2019-01-06T01:34:31.627Z,4.62
2019-01-06T01:35:31.582Z,4.62
2019-01-06T01:36:31.684Z,4.62
2019-01-06T01:37:31.996Z,4.62
2019-01-06T01:38:31.674Z,4.62
2019-01-06T01:39:31.581Z,4.62
2019-01-06T01:40:32.518Z,4.69
2019-01-06T01:41:32.135Z,4.62
2019-01-06T01:42:31.791Z,4.62
2019-01-06T01:43:31.628Z,4.62
2019-01-06T01:44:31.662Z,4.69
2019-01-06T01:45:31.587Z,4.62
2019-01-06T01:46:31.731Z,4.62
2019-01-06T01:47:31.698Z,4.62
2019-01-06T01:48:31.604Z,4.62
2019-01-06T01:49:31.753Z,4.62
2019-01-06T01:50:31.826Z,4.62
2019-01-06T01:51:31.803Z,4.62
2019-01-06T01:52:32.014Z,4.56
2019-01-06T01:53:31.561Z,4.62
2019-01-06T01:54:31.756Z,4.62
2019-01-06T01:55:31.589Z,4.62
2019-01-06T01:56:31.958Z,4.62
2019-01-06T01:57:31.634Z,4.62
2019-01-06T01:58:31.923Z,4.56
2019-01-06T01:59:31.668Z,4.69
2019-01-06T02:00:31.841Z,4.62
2019-01-06T02:01:31.626Z,4.62
2019-01-06T02:02:31.936Z,4.56
2019-01-06T02:03:32.093Z,4.62
2019-01-06T02:04:31.580Z,4.62
2019-01-06T02:05:31.752Z,4.62
2019-01-06T02:06:31.706Z,4.56
2019-01-06T02:07:31.803Z,4.62
2019-01-06T02:08:31.673Z,4.56
2019-01-06T02:09:31.629Z,4.56
2019-01-06T02:10:31.523Z,4.62
2019-01-06T02:11:31.756Z,4.56
2019-01-06T02:12:31.728Z,4.62
2019-01-06T02:13:31.632Z,4.56
2019-01-06T02:14:31.794Z,4.62
2019-01-06T02:15:31.583Z,4.56
2019-01-06T02:16:31.727Z,4.56
2019-01-06T02:17:31.558Z,4.56
2019-01-06T02:18:31.946Z,4.56
2019-01-06T02:19:31.543Z,4.56
2019-01-06T02:20:32.389Z,4.56
2019-01-06T02:21:31.598Z,4.56
2019-01-06T02:22:31.561Z,4.56
2019-01-06T02:23:31.903Z,4.56
2019-01-06T02:24:32.261Z,4.56
2019-01-06T02:25:31.672Z,4.56
2019-01-06T02:26:32.082Z,4.56
2019-01-06T02:27:31.541Z,4.56
2019-01-06T02:28:31.674Z,4.56
2019-01-06T02:29:32.352Z,4.56
2019-01-06T02:30:31.650Z,4.5
2019-01-06T02:31:31.662Z,4.5
2019-01-06T02:32:31.640Z,4.5
2019-01-06T02:33:31.537Z,4.56
2019-01-06T02:34:32.038Z,4.5
2019-01-06T02:35:31.862Z,4.56
2019-01-06T02:36:31.714Z,4.56
2019-01-06T02:37:31.605Z,4.56
2019-01-06T02:38:31.538Z,4.5
2019-01-06T02:39:31.530Z,4.56
2019-01-06T02:40:31.526Z,4.5
2019-01-06T02:41:31.503Z,4.5
2019-01-06T02:42:32.148Z,4.5
2019-01-06T02:43:31.589Z,4.5
2019-01-06T02:44:31.790Z,4.5
2019-01-06T02:45:32.412Z,4.56
2019-01-06T02:46:31.635Z,4.5
2019-01-06T02:47:31.730Z,4.5
2019-01-06T02:48:31.877Z,4.5
2019-01-06T02:49:31.536Z,4.5
2019-01-06T02:50:31.712Z,4.5
2019-01-06T02:51:31.600Z,4.5
2019-01-06T02:52:31.699Z,4.5
2019-01-06T02:53:31.569Z,4.5
2019-01-06T02:54:31.485Z,4.5
2019-01-06T02:55:31.614Z,4.5
2019-01-06T02:56:31.721Z,4.5
2019-01-06T02:57:32.192Z,4.5
2019-01-06T02:58:31.539Z,4.44
2019-01-06T02:59:31.502Z,4.5
2019-01-06T03:00:31.564Z,4.5
2019-01-06T03:01:31.886Z,4.44
2019-01-06T03:02:31.565Z,4.5
2019-01-06T03:03:31.570Z,4.44
2019-01-06T03:04:31.509Z,4.5
2019-01-06T03:05:31.597Z,4.44
2019-01-06T03:06:31.505Z,4.5
2019-01-06T03:07:31.583Z,4.5
2019-01-06T03:08:31.504Z,4.44
2019-01-06T03:09:31.728Z,4.5
2019-01-06T03:10:31.515Z,4.44
2019-01-06T03:11:31.658Z,4.5
2019-01-06T03:12:31.481Z,4.44
2019-01-06T03:13:31.599Z,4.5
2019-01-06T03:14:31.488Z,4.44
2019-01-06T03:15:31.496Z,4.44
2019-01-06T03:16:31.490Z,4.44
2019-01-06T03:17:31.544Z,4.5
2019-01-06T03:18:31.491Z,4.44
2019-01-06T03:19:31.598Z,4.44
2019-01-06T03:20:31.530Z,4.44
2019-01-06T03:21:31.697Z,4.5
2019-01-06T03:22:31.477Z,4.5
2019-01-06T03:23:31.694Z,4.5
2019-01-06T03:24:31.716Z,4.44
2019-01-06T03:25:31.568Z,4.5
2019-01-06T03:26:31.836Z,4.44
2019-01-06T03:27:31.638Z,4.44
2019-01-06T03:28:31.564Z,4.44
2019-01-06T03:29:31.804Z,4.44
2019-01-06T03:30:31.705Z,4.44
2019-01-06T03:31:31.570Z,4.44
2019-01-06T03:32:32.205Z,4.44
2019-01-06T03:33:31.453Z,4.44
2019-01-06T03:34:31.710Z,4.44
2019-01-06T03:35:31.765Z,4.44
2019-01-06T03:36:31.604Z,4.44
2019-01-06T03:37:32.050Z,4.44
2019-01-06T03:38:31.659Z,4.44
2019-01-06T03:39:31.874Z,4.44
2019-01-06T03:40:31.679Z,4.5
2019-01-06T03:41:31.755Z,4.44
2019-01-06T03:42:31.619Z,4.44
2019-01-06T03:43:31.554Z,4.5
2019-01-06T03:44:31.672Z,4.5
2019-01-06T03:45:31.697Z,4.5
2019-01-06T03:46:31.762Z,4.5
2019-01-06T03:47:31.490Z,4.5
2019-01-06T03:48:31.770Z,4.5
2019-01-06T03:49:31.424Z,4.56
2019-01-06T03:50:31.438Z,4.5
2019-01-06T03:51:31.794Z,4.5
2019-01-06T03:52:31.523Z,4.56
2019-01-06T03:53:31.807Z,4.56
2019-01-06T03:54:31.490Z,4.56
2019-01-06T03:55:31.596Z,4.56
2019-01-06T03:56:32.301Z,4.56
2019-01-06T03:57:31.699Z,4.62
2019-01-06T03:58:31.829Z,4.56
2019-01-06T03:59:31.694Z,4.56
2019-01-06T04:00:31.686Z,4.62
2019-01-06T04:01:31.511Z,4.62
2019-01-06T04:02:31.425Z,4.62
2019-01-06T04:03:31.607Z,4.69
2019-01-06T04:04:31.500Z,4.62
2019-01-06T04:05:31.581Z,4.62
2019-01-06T04:06:31.549Z,4.69
2019-01-06T04:07:31.397Z,4.69
2019-01-06T04:08:31.437Z,4.69
2019-01-06T04:09:31.859Z,4.69
2019-01-06T04:10:32.263Z,4.69
2019-01-06T04:11:31.798Z,4.69
2019-01-06T04:12:31.667Z,4.75
2019-01-06T04:13:31.726Z,4.69
2019-01-06T04:14:31.572Z,4.69
2019-01-06T04:15:32.324Z,4.69
2019-01-06T04:16:31.528Z,4.69
2019-01-06T04:17:31.651Z,4.75
2019-01-06T04:18:31.506Z,4.75
2019-01-06T04:19:31.501Z,4.69
2019-01-06T04:20:31.664Z,4.75
2019-01-06T04:21:31.527Z,4.69
2019-01-06T04:22:31.746Z,4.75
2019-01-06T04:23:31.391Z,4.69
2019-01-06T04:24:31.452Z,4.69
2019-01-06T04:25:31.556Z,4.69
2019-01-06T04:26:31.506Z,4.75
2019-01-06T04:27:31.364Z,4.75
2019-01-06T04:28:31.681Z,4.75
2019-01-06T04:29:31.418Z,4.75
2019-01-06T04:30:31.489Z,4.69
2019-01-06T04:31:31.777Z,4.75
2019-01-06T04:32:31.943Z,4.69
2019-01-06T04:33:31.714Z,4.75
2019-01-06T04:34:31.744Z,4.69
2019-01-06T04:35:31.738Z,4.69
2019-01-06T04:36:31.385Z,4.75
2019-01-06T04:37:31.489Z,4.75
2019-01-06T04:38:31.649Z,4.75
2019-01-06T04:39:31.417Z,4.75
2019-01-06T04:40:31.390Z,4.75
2019-01-06T04:41:31.363Z,4.75
2019-01-06T04:42:31.489Z,4.75
2019-01-06T04:43:31.369Z,4.69
2019-01-06T04:44:31.421Z,4.75
2019-01-06T04:45:31.440Z,4.69
2019-01-06T04:46:31.494Z,4.75
2019-01-06T04:47:31.610Z,4.75
2019-01-06T04:48:31.481Z,4.75
2019-01-06T04:49:31.522Z,4.75
2019-01-06T04:50:31.327Z,4.75
2019-01-06T04:51:31.453Z,4.69
2019-01-06T04:52:33.387Z,4.69
2019-01-06T04:53:31.543Z,4.69
2019-01-06T04:54:31.459Z,4.69
2019-01-06T04:55:31.435Z,4.69
2019-01-06T04:56:31.332Z,4.75
2019-01-06T04:57:31.345Z,4.69
2019-01-06T04:58:31.437Z,4.75
2019-01-06T04:59:31.772Z,4.69
2019-01-06T05:00:31.410Z,4.69
2019-01-06T05:01:32.255Z,4.75
2019-01-06T05:02:31.441Z,4.69
2019-01-06T05:03:31.682Z,4.75
2019-01-06T05:04:31.781Z,4.69
2019-01-06T05:05:31.351Z,4.69
2019-01-06T05:06:31.529Z,4.69
2019-01-06T05:07:31.420Z,4.69
2019-01-06T05:08:31.475Z,4.69
2019-01-06T05:09:31.564Z,4.75
2019-01-06T05:10:31.506Z,4.69
2019-01-06T05:11:31.415Z,4.69
2019-01-06T05:12:31.760Z,4.69
2019-01-06T05:13:31.598Z,4.69
2019-01-06T05:14:31.466Z,4.69
2019-01-06T05:15:31.560Z,4.69
2019-01-06T05:16:32.147Z,4.69
2019-01-06T05:17:31.315Z,4.69
2019-01-06T05:18:31.474Z,4.69
2019-01-06T05:19:31.561Z,4.69
2019-01-06T05:20:31.378Z,4.62
2019-01-06T05:21:31.511Z,4.69
2019-01-06T05:22:31.526Z,4.69
2019-01-06T05:23:31.445Z,4.69
2019-01-06T05:24:31.403Z,4.69
2019-01-06T05:25:31.564Z,4.62
2019-01-06T05:26:31.996Z,4.69
2019-01-06T05:27:31.796Z,4.69
2019-01-06T05:28:31.791Z,4.69
2019-01-06T05:29:31.709Z,4.69
2019-01-06T05:30:31.520Z,4.69
2019-01-06T05:31:31.488Z,4.62
2019-01-06T05:32:31.790Z,4.62
2019-01-06T05:33:31.300Z,4.69
2019-01-06T05:34:31.494Z,4.69
2019-01-06T05:35:31.508Z,4.69
2019-01-06T05:36:32.119Z,4.69
2019-01-06T05:37:31.442Z,4.69
2019-01-06T05:38:31.774Z,4.69
2019-01-06T05:39:31.525Z,4.69
2019-01-06T05:40:31.400Z,4.69
2019-01-06T05:41:31.649Z,4.69
2019-01-06T05:42:31.541Z,4.69
2019-01-06T05:43:31.687Z,4.75
2019-01-06T05:44:31.405Z,4.69
2019-01-06T05:45:31.543Z,4.69
2019-01-06T05:46:31.466Z,4.69
2019-01-06T05:47:31.313Z,4.69
2019-01-06T05:48:31.584Z,4.69
2019-01-06T05:49:31.353Z,4.69
2019-01-06T05:50:31.268Z,4.69
2019-01-06T05:51:31.437Z,4.69
2019-01-06T05:52:31.919Z,4.69
2019-01-06T05:53:31.316Z,4.69
2019-01-06T05:54:31.319Z,4.69
2019-01-06T05:55:31.274Z,4.69
2019-01-06T05:56:31.434Z,4.69
2019-01-06T05:57:31.305Z,4.69
2019-01-06T05:58:31.504Z,4.69
2019-01-06T05:59:31.269Z,4.62
2019-01-06T06:00:31.323Z,4.69
2019-01-06T06:01:31.281Z,4.69
2019-01-06T06:02:31.240Z,4.69
2019-01-06T06:03:31.396Z,4.62
2019-01-06T06:04:31.383Z,4.69
2019-01-06T06:05:31.374Z,4.62
2019-01-06T06:06:31.507Z,4.62
2019-01-06T06:07:31.380Z,4.62
2019-01-06T06:08:31.319Z,4.69
2019-01-06T06:09:31.316Z,4.62
2019-01-06T06:10:31.448Z,4.62
2019-01-06T06:11:31.267Z,4.69
2019-01-06T06:12:31.216Z,4.62
2019-01-06T06:13:31.327Z,4.62
2019-01-06T06:14:31.338Z,4.62
2019-01-06T06:15:31.294Z,4.62
2019-01-06T06:16:31.449Z,4.62
2019-01-06T06:17:31.271Z,4.69
2019-01-06T06:18:31.440Z,4.69
2019-01-06T06:19:31.202Z,4.69
2019-01-06T06:20:31.258Z,4.62
2019-01-06T06:21:31.240Z,4.69
2019-01-06T06:22:31.256Z,4.69
2019-01-06T06:23:31.273Z,4.69
2019-01-06T06:24:31.270Z,4.69
2019-01-06T06:25:31.239Z,4.69
2019-01-06T06:26:31.244Z,4.69
2019-01-06T06:27:31.289Z,4.69
2019-01-06T06:28:31.331Z,4.69
2019-01-06T06:29:31.287Z,4.69
2019-01-06T06:30:32.913Z,4.69
2019-01-06T06:31:31.300Z,4.69
2019-01-06T06:32:31.547Z,4.62
2019-01-06T06:33:31.253Z,4.69
2019-01-06T06:34:31.218Z,4.62
2019-01-06T06:35:31.210Z,4.69
2019-01-06T06:36:31.221Z,4.69
2019-01-06T06:37:31.245Z,4.69
2019-01-06T06:38:31.209Z,4.69
2019-01-06T06:39:31.309Z,4.69
2019-01-06T06:40:31.345Z,4.69
2019-01-06T06:41:31.418Z,4.69
2019-01-06T06:42:31.209Z,4.69
2019-01-06T06:43:31.469Z,4.62
2019-01-06T06:44:31.573Z,4.69
2019-01-06T06:45:31.439Z,4.69
2019-01-06T06:46:31.184Z,4.69
2019-01-06T06:47:31.928Z,4.69
2019-01-06T06:48:31.373Z,4.69
2019-01-06T06:49:31.256Z,4.69
2019-01-06T06:50:31.246Z,4.69
2019-01-06T06:51:31.321Z,4.69
2019-01-06T06:52:31.300Z,4.69
2019-01-06T06:53:31.679Z,4.69
2019-01-06T06:54:31.443Z,4.69
2019-01-06T06:55:31.313Z,4.62
2019-01-06T06:56:31.216Z,4.69
2019-01-06T06:57:31.501Z,4.69
2019-01-06T06:58:31.336Z,4.69
2019-01-06T06:59:31.261Z,4.69
2019-01-06T07:00:31.384Z,4.62
2019-01-06T07:01:31.391Z,4.69
2019-01-06T07:02:31.263Z,4.62
2019-01-06T07:03:31.406Z,4.69
2019-01-06T07:04:31.377Z,4.69
2019-01-06T07:05:31.185Z,4.69
2019-01-06T07:06:31.300Z,4.69
2019-01-06T07:07:31.198Z,4.69
2019-01-06T07:08:31.402Z,4.62
2019-01-06T07:09:31.360Z,4.69
2019-01-06T07:10:31.245Z,4.62
2019-01-06T07:11:31.668Z,4.69
2019-01-06T07:12:31.309Z,4.62
2019-01-06T07:13:31.341Z,4.62
2019-01-06T07:14:31.311Z,4.62
2019-01-06T07:15:31.292Z,4.69
2019-01-06T07:16:31.387Z,4.62
2019-01-06T07:17:32.070Z,4.62
2019-01-06T07:18:31.368Z,4.62
2019-01-06T07:19:31.303Z,4.69
2019-01-06T07:20:31.190Z,4.62
2019-01-06T07:21:31.408Z,4.69
2019-01-06T07:22:31.429Z,4.69
2019-01-06T07:23:31.701Z,4.62
2019-01-06T07:24:31.550Z,4.69
2019-01-06T07:25:31.214Z,4.62
2019-01-06T07:26:31.215Z,4.69
2019-01-06T07:27:31.313Z,4.62
2019-01-06T07:28:31.988Z,4.62
2019-01-06T07:29:31.139Z,4.62
2019-01-06T07:30:31.331Z,4.62
2019-01-06T07:31:31.152Z,4.62
2019-01-06T07:32:31.183Z,4.62
2019-01-06T07:33:31.283Z,4.62
2019-01-06T07:34:31.298Z,4.62
2019-01-06T07:35:31.452Z,4.62
2019-01-06T07:36:31.152Z,4.62
2019-01-06T07:37:31.415Z,4.62
2019-01-06T07:38:31.298Z,4.56
2019-01-06T07:39:31.479Z,4.62
2019-01-06T07:40:31.304Z,4.62
2019-01-06T07:41:31.255Z,4.62
2019-01-06T07:42:31.314Z,4.56
2019-01-06T07:43:31.115Z,4.62
2019-01-06T07:44:31.977Z,4.56
2019-01-06T07:45:31.160Z,4.56
2019-01-06T07:46:31.270Z,4.56
2019-01-06T07:47:31.331Z,4.56
2019-01-06T07:48:31.309Z,4.56
2019-01-06T07:49:31.106Z,4.56
2019-01-06T07:50:31.340Z,4.56
2019-01-06T07:51:32.045Z,4.56
2019-01-06T07:52:31.300Z,4.56
2019-01-06T07:53:31.100Z,4.56
2019-01-06T07:54:31.570Z,4.56
2019-01-06T07:55:31.180Z,4.62
2019-01-06T07:56:31.188Z,4.56
2019-01-06T07:57:31.209Z,4.56
2019-01-06T07:58:31.266Z,4.56
2019-01-06T07:59:31.220Z,4.56
2019-01-06T08:00:31.521Z,4.56
2019-01-06T08:01:31.132Z,4.56
2019-01-06T08:02:31.516Z,4.56
2019-01-06T08:03:31.138Z,4.56
2019-01-06T08:04:31.856Z,4.56
2019-01-06T08:05:31.295Z,4.56
2019-01-06T08:06:31.143Z,4.56
2019-01-06T08:07:31.163Z,4.56
2019-01-06T08:08:31.199Z,4.62
2019-01-06T08:09:31.250Z,4.62
2019-01-06T08:10:31.247Z,4.56
2019-01-06T08:11:31.228Z,4.62
2019-01-06T08:12:31.180Z,4.62
2019-01-06T08:13:31.216Z,4.56
2019-01-06T08:14:31.239Z,4.56
2019-01-06T08:15:31.129Z,4.56
2019-01-06T08:16:31.219Z,4.56
2019-01-06T08:17:31.191Z,4.62
2019-01-06T08:18:31.354Z,4.56
2019-01-06T08:19:31.188Z,4.62
2019-01-06T08:20:33.244Z,4.62
2019-01-06T08:21:31.152Z,4.56
2019-01-06T08:22:31.531Z,4.62
2019-01-06T08:23:31.120Z,4.62
2019-01-06T08:24:31.531Z,4.56
2019-01-06T08:25:31.694Z,4.56
2019-01-06T08:26:31.252Z,4.56
2019-01-06T08:27:31.844Z,4.62
2019-01-06T08:28:31.342Z,4.62
2019-01-06T08:29:31.671Z,4.56
2019-01-06T08:30:31.304Z,4.56
2019-01-06T08:31:31.159Z,4.62
2019-01-06T08:32:31.168Z,4.62
2019-01-06T08:33:31.314Z,4.62
2019-01-06T08:34:31.248Z,4.62
2019-01-06T08:35:31.043Z,4.56
2019-01-06T08:36:31.247Z,4.56
2019-01-06T08:37:31.938Z,4.56
2019-01-06T08:38:31.159Z,4.62
2019-01-06T08:39:31.180Z,4.56
2019-01-06T08:40:31.379Z,4.62
2019-01-06T08:41:31.294Z,4.56
2019-01-06T08:42:31.189Z,4.56
2019-01-06T08:43:31.167Z,4.56
2019-01-06T08:44:31.163Z,4.62
2019-01-06T08:45:31.220Z,4.56
2019-01-06T08:46:31.293Z,4.56
2019-01-06T08:47:31.079Z,4.62
2019-01-06T08:48:31.881Z,4.56
2019-01-06T08:49:31.144Z,4.56
2019-01-06T08:50:31.362Z,4.56
2019-01-06T08:51:31.246Z,4.62
2019-01-06T08:52:31.268Z,4.62
2019-01-06T08:53:31.223Z,4.56
2019-01-06T08:54:31.432Z,4.56
2019-01-06T08:55:31.479Z,4.62
2019-01-06T08:56:32.813Z,4.56
2019-01-06T08:57:31.114Z,4.62
2019-01-06T08:58:31.187Z,4.56
2019-01-06T08:59:31.288Z,4.56
2019-01-06T09:00:31.262Z,4.62
2019-01-06T09:01:31.354Z,4.62
2019-01-06T09:02:31.125Z,4.56
2019-01-06T09:03:31.449Z,4.62
2019-01-06T09:04:31.858Z,4.56
2019-01-06T09:05:31.282Z,4.62
2019-01-06T09:06:31.233Z,4.56
2019-01-06T09:07:31.048Z,4.62
2019-01-06T09:08:31.567Z,4.62
2019-01-06T09:09:31.238Z,4.62
2019-01-06T09:10:31.485Z,4.62
2019-01-06T09:11:31.292Z,4.62
2019-01-06T09:12:31.333Z,4.56
2019-01-06T09:13:31.296Z,4.62
2019-01-06T09:14:31.251Z,4.56
2019-01-06T09:15:31.355Z,4.56
2019-01-06T09:16:31.140Z,4.62
2019-01-06T09:17:31.300Z,4.56
2019-01-06T09:18:31.036Z,4.62
2019-01-06T09:19:31.368Z,4.56
2019-01-06T09:20:31.101Z,4.56
2019-01-06T09:21:31.128Z,4.62
2019-01-06T09:22:31.067Z,4.62
2019-01-06T09:23:31.314Z,4.62
2019-01-06T09:24:31.216Z,4.62
2019-01-06T09:25:31.288Z,4.62
2019-01-06T09:26:31.143Z,4.62
2019-01-06T09:27:31.305Z,4.62
2019-01-06T09:28:31.466Z,4.62
2019-01-06T09:29:32.740Z,4.62
2019-01-06T09:30:31.451Z,4.69
2019-01-06T09:31:31.163Z,4.62
2019-01-06T09:32:31.020Z,4.62
2019-01-06T09:33:31.465Z,4.69
2019-01-06T09:34:31.014Z,4.62
2019-01-06T09:35:31.477Z,4.69
2019-01-06T09:36:31.281Z,4.62
2019-01-06T09:37:31.244Z,4.69
2019-01-06T09:38:31.210Z,4.62
2019-01-06T09:39:31.152Z,4.69
2019-01-06T09:40:31.379Z,4.69
2019-01-06T09:41:31.106Z,4.69
2019-01-06T09:42:31.438Z,4.69
2019-01-06T09:43:31.010Z,4.69
2019-01-06T09:44:31.290Z,4.69
2019-01-06T09:45:31.667Z,4.69
2019-01-06T09:46:39.406Z,4.69
2019-01-06T09:47:31.158Z,4.69
2019-01-06T09:48:31.222Z,4.75
2019-01-06T09:49:31.208Z,4.69
2019-01-06T09:50:31.166Z,4.75
2019-01-06T09:51:31.207Z,4.75
2019-01-06T09:52:31.092Z,4.75
2019-01-06T09:53:31.279Z,4.69
2019-01-06T09:54:31.177Z,4.75
2019-01-06T09:55:31.003Z,4.75
2019-01-06T09:56:30.978Z,4.75
2019-01-06T09:57:31.035Z,4.75
2019-01-06T09:58:31.204Z,4.75
2019-01-06T09:59:31.504Z,4.75
2019-01-06T10:00:30.963Z,4.75
2019-01-06T10:01:31.115Z,4.75
2019-01-06T10:02:32.452Z,4.75
2019-01-06T10:03:30.992Z,4.75
2019-01-06T10:04:35.586Z,4.81
2019-01-06T10:05:30.985Z,4.75
2019-01-06T10:06:31.400Z,4.75
2019-01-06T10:07:31.170Z,4.81
2019-01-06T10:08:31.246Z,4.75
2019-01-06T10:09:31.458Z,4.75
2019-01-06T10:10:31.166Z,4.81
2019-01-06T10:11:31.122Z,4.81
2019-01-06T10:12:31.037Z,4.81
2019-01-06T10:13:31.000Z,4.81
2019-01-06T10:14:31.218Z,4.81
2019-01-06T10:15:31.113Z,4.81
2019-01-06T10:16:30.963Z,4.81
2019-01-06T10:17:31.364Z,4.81
2019-01-06T10:18:31.319Z,4.81
2019-01-06T10:19:30.936Z,4.81
2019-01-06T10:20:31.093Z,4.81
2019-01-06T10:21:31.120Z,4.87
2019-01-06T10:22:31.203Z,4.81
2019-01-06T10:23:31.980Z,4.87
2019-01-06T10:24:31.324Z,4.81
2019-01-06T10:25:31.635Z,4.87
2019-01-06T10:26:31.214Z,4.87
2019-01-06T10:27:31.792Z,4.81
2019-01-06T10:28:31.149Z,4.87
2019-01-06T10:29:31.107Z,4.81
2019-01-06T10:30:31.297Z,4.87
2019-01-06T10:31:31.430Z,4.87
2019-01-06T10:32:30.986Z,4.87
2019-01-06T10:33:31.060Z,4.81
2019-01-06T10:34:31.069Z,4.87
2019-01-06T10:35:32.189Z,4.87
2019-01-06T10:36:31.241Z,4.87
2019-01-06T10:37:30.921Z,4.87
2019-01-06T10:38:31.455Z,4.87
2019-01-06T10:39:31.272Z,4.87
2019-01-06T10:40:31.164Z,4.87
2019-01-06T10:41:31.757Z,4.87
2019-01-06T10:42:30.900Z,4.87
2019-01-06T10:43:31.143Z,4.87
2019-01-06T10:44:31.309Z,4.94
2019-01-06T10:45:31.089Z,4.94
2019-01-06T10:46:31.273Z,4.94
2019-01-06T10:47:30.866Z,4.94
2019-01-06T10:48:31.205Z,4.94
2019-01-06T10:49:30.985Z,4.94
2019-01-06T10:50:31.082Z,4.94
2019-01-06T10:51:31.082Z,4.94
2019-01-06T10:52:30.924Z,4.94
2019-01-06T10:53:31.349Z,4.94
2019-01-06T10:54:31.056Z,4.94
2019-01-06T10:55:31.062Z,4.94
2019-01-06T10:56:31.275Z,4.94
2019-01-06T10:57:31.002Z,4.94
2019-01-06T10:58:31.317Z,5
2019-01-06T10:59:31.011Z,5
2019-01-06T11:00:31.091Z,5
2019-01-06T11:01:34.454Z,5
2019-01-06T11:02:34.418Z,5
2019-01-06T11:03:35.703Z,5
2019-01-06T11:04:33.234Z,5
2019-01-06T11:05:40.473Z,5
2019-01-06T11:06:37.715Z,5
2019-01-06T11:07:32.271Z,5
2019-01-06T11:08:33.059Z,5
2019-01-06T11:09:33.098Z,5
2019-01-06T11:10:37.725Z,5
2019-01-06T11:11:33.652Z,5
2019-01-06T11:12:33.747Z,5
2019-01-06T11:13:42.640Z,5
2019-01-06T11:14:50.234Z,5.06
2019-01-06T11:17:23.520Z,5.06
2019-01-06T11:18:39.257Z,5.06
2019-01-06T11:19:49.483Z,5.06
2019-01-06T11:20:41.361Z,5.06
2019-01-06T11:21:51.786Z,5.06
2019-01-06T11:22:53.614Z,5.06
2019-01-06T11:23:37.171Z,5.06
2019-01-06T11:24:38.242Z,5.06
2019-01-06T11:25:45.298Z,5.06
2019-01-06T11:26:47.990Z,5.06
2019-01-06T11:28:44.348Z,5.06
2019-01-06T11:30:44.624Z,5.06
2019-01-06T11:31:46.480Z,5.06
2019-01-06T11:33:36.819Z,5.06
2019-01-06T11:37:55.934Z,5.06
2019-01-06T11:38:36.189Z,5.12
2019-01-06T11:39:50.341Z,5.12
2019-01-06T11:40:47.975Z,5.06
2019-01-06T11:41:38.987Z,5.12
2019-01-06T11:42:37.432Z,5.12
2019-01-06T11:43:35.205Z,5.12
2019-01-06T11:44:36.406Z,5.12
2019-01-06T11:46:48.897Z,5.12
2019-01-06T11:48:01.004Z,5.12
2019-01-06T11:48:46.981Z,5.12
2019-01-06T11:49:51.123Z,5.06
2019-01-06T11:50:46.925Z,5.12
2019-01-06T11:51:55.757Z,5.12
2019-01-06T11:53:03.028Z,5.12
2019-01-06T11:54:02.721Z,5.12
2019-01-06T11:55:53.895Z,5.12
2019-01-06T11:56:50.462Z,5.12
2019-01-06T11:58:58.425Z,5.12
2019-01-06T12:00:15.355Z,5.12
2019-01-06T12:01:02.016Z,5.12
2019-01-06T12:01:59.402Z,5.12
2019-01-06T12:03:00.147Z,5.12
2019-01-06T12:05:03.107Z,5.12
2019-01-06T12:07:03.952Z,5.12
2019-01-06T12:08:57.379Z,5.12
2019-01-06T12:08:58.633Z,5.12
2019-01-06T12:09:58.458Z,5.12
2019-01-06T12:10:57.932Z,5.12
2019-01-06T12:11:57.994Z,5.19
2019-01-06T12:12:57.933Z,5.12
2019-01-06T12:13:58.794Z,5.19
2019-01-06T12:14:57.536Z,5.12
2019-01-06T12:15:57.627Z,5.12
2019-01-06T12:16:57.568Z,5.19
2019-01-06T12:17:57.744Z,5.12
2019-01-06T12:18:57.614Z,5.19
2019-01-06T12:19:57.551Z,5.12
2019-01-06T12:20:57.627Z,5.19
2019-01-06T12:21:57.742Z,5.19
2019-01-06T12:22:57.475Z,5.19
2019-01-06T12:23:57.552Z,5.19
2019-01-06T12:24:57.723Z,5.19
2019-01-06T12:25:57.789Z,5.19
2019-01-06T12:26:57.841Z,5.19
2019-01-06T12:27:57.898Z,5.19
2019-01-06T12:28:57.551Z,5.19
2019-01-06T12:29:57.614Z,5.19
2019-01-06T12:30:57.596Z,5.19
2019-01-06T12:31:57.900Z,5.19
2019-01-06T12:32:58.234Z,5.25
2019-01-06T12:33:58.356Z,5.25
2019-01-06T12:34:57.725Z,5.25
2019-01-06T12:35:57.865Z,5.25
2019-01-06T12:36:58.028Z,5.25
2019-01-06T12:38:57.583Z,5.25
2019-01-06T12:39:57.557Z,5.25
2019-01-06T12:40:57.559Z,5.25
2019-01-06T12:41:57.593Z,5.25
2019-01-06T12:42:57.512Z,5.25
2019-01-06T12:43:57.674Z,5.25
2019-01-06T12:44:57.657Z,5.25
2019-01-06T12:45:57.504Z,5.31
2019-01-06T12:46:57.550Z,5.25
2019-01-06T12:47:58.236Z,5.25
2019-01-06T12:48:57.841Z,5.25
2019-01-06T12:49:57.493Z,5.31
2019-01-06T12:50:57.553Z,5.31
2019-01-06T12:51:57.573Z,5.31
2019-01-06T12:52:57.549Z,5.31
2019-01-06T12:53:57.486Z,5.25
2019-01-06T12:54:57.654Z,5.31
2019-01-06T12:55:57.865Z,5.31
2019-01-06T12:56:57.506Z,5.31
2019-01-06T12:57:57.539Z,5.31
2019-01-06T12:58:57.447Z,5.31
2019-01-06T12:59:57.558Z,5.31
2019-01-06T13:00:57.929Z,5.31
2019-01-06T13:01:57.514Z,5.31
2019-01-06T13:02:58.292Z,5.31
2019-01-06T13:03:57.781Z,5.31
2019-01-06T13:04:57.622Z,5.31
2019-01-06T13:05:57.437Z,5.31
2019-01-06T13:06:57.806Z,5.31
2019-01-06T13:07:58.170Z,5.31
2019-01-06T13:08:57.721Z,5.31
2019-01-06T13:09:57.812Z,5.31
2019-01-06T13:10:57.569Z,5.31
2019-01-06T13:11:57.686Z,5.31
2019-01-06T13:12:57.589Z,5.25
2019-01-06T13:13:57.462Z,5.31
2019-01-06T13:14:57.485Z,5.31
2019-01-06T13:15:57.597Z,5.31
2019-01-06T13:16:57.469Z,5.31
2019-01-06T13:17:57.542Z,5.31
2019-01-06T13:18:57.531Z,5.31
2019-01-06T13:19:57.556Z,5.31
2019-01-06T13:20:57.478Z,5.31
2019-01-06T13:21:57.510Z,5.31
2019-01-06T13:22:57.510Z,5.31
2019-01-06T13:23:57.538Z,5.31
2019-01-06T13:24:57.489Z,5.31
2019-01-06T13:25:57.459Z,5.31
2019-01-06T13:26:57.437Z,5.31
2019-01-06T13:27:57.476Z,5.31
2019-01-06T13:28:57.411Z,5.37
2019-01-06T13:29:57.454Z,5.31
2019-01-06T13:30:57.610Z,5.31
2019-01-06T13:31:57.383Z,5.31
2019-01-06T13:32:57.500Z,5.31
2019-01-06T13:33:57.563Z,5.31
2019-01-06T13:34:58.531Z,5.31
2019-01-06T13:35:59.688Z,5.31